Time;durP1;ratioP1;P1;durP2;ratioP2;P2;SDS_P1;SDS_P2;PMS_P1;PMS_P2;Temp;Humidity;BMP_temperature;BMP_pressure;BME280_temperature;BME280_humidity;BME280_pressure;Samples;Min_cycle;Max_cycle;Signal;HPM_P1;HPM_P2
2023/02/26 00:00:59;;;;;;;70.40;32.00;;;28.90;76.30;;;;;;5077173;28;20032;-53
2023/02/26 00:03:26;;;;;;;73.13;33.28;;;28.90;76.20;;;;;;5082548;28;20024;-48
2023/02/26 00:05:52;;;;;;;78.40;40.13;;;28.90;76.30;;;;;;5083225;28;20051;-53
2023/02/26 00:08:19;;;;;;;109.78;48.20;;;28.90;76.40;;;;;;5070321;28;20025;-52
2023/02/26 00:10:46;;;;;;;87.80;46.13;;;28.90;76.40;;;;;;5082761;28;20037;-51
2023/02/26 00:13:13;;;;;;;76.70;41.17;;;28.90;76.40;;;;;;5083686;28;20082;-52
2023/02/26 00:15:40;;;;;;;68.63;36.90;;;28.90;76.40;;;;;;5083383;28;20317;-55
2023/02/26 00:18:09;;;;;;;88.30;34.78;;;28.80;76.20;;;;;;5077418;28;20500;-54
2023/02/26 00:20:36;;;;;;;75.05;35.47;;;28.80;76.30;;;;;;5072010;28;20050;-55
2023/02/26 00:23:03;;;;;;;57.47;31.73;;;28.80;76.40;;;;;;5073810;28;20032;-51
2023/02/26 00:25:30;;;;;;;51.00;28.98;;;28.80;76.30;;;;;;5081632;28;20216;-52
2023/02/26 00:27:56;;;;;;;53.33;28.85;;;28.80;76.40;;;;;;5087114;28;20370;-52
2023/02/26 00:30:23;;;;;;;59.28;28.13;;;28.70;75.90;;;;;;5086738;28;20036;-52
2023/02/26 00:32:51;;;;;;;65.22;25.73;;;28.70;76.00;;;;;;5084959;28;20059;-53
2023/02/26 00:35:18;;;;;;;50.28;24.33;;;28.70;75.90;;;;;;5076605;28;20036;-53
2023/02/26 00:38:03;;;;;;;43.03;21.38;;;28.70;76.20;;;;;;5067621;28;20182;-54
2023/02/26 00:40:35;;;;;;;36.40;20.00;;;28.70;76.00;;;;;;5085302;28;20028;-52
2023/02/26 00:43:07;;;;;;;42.67;17.67;;;28.70;75.80;;;;;;5086729;28;20032;-49
2023/02/26 00:45:35;;;;;;;40.92;17.00;;;28.70;75.60;;;;;;5086842;28;20027;-54
2023/02/26 00:48:39;;;;;;;30.65;16.45;;;28.70;75.40;;;;;;5085794;28;20032;-52
2023/02/26 00:51:30;;;;;;;34.45;15.35;;;28.60;75.30;;;;;;5086395;28;20032;-54
2023/02/26 00:54:28;;;;;;;53.15;15.15;;;28.60;75.30;;;;;;5085212;28;20029;-52
2023/02/26 00:56:56;;;;;;;32.80;14.55;;;28.60;75.20;;;;;;5066290;28;20328;-53
2023/02/26 00:59:23;;;;;;;39.78;13.48;;;28.60;75.10;;;;;;5066492;28;20316;-47
2023/02/26 01:01:51;;;;;;;35.35;13.05;;;28.60;75.00;;;;;;5065991;28;20032;-52
2023/02/26 01:04:21;;;;;;;27.77;11.95;;;28.60;74.80;;;;;;5066498;28;20092;-55
2023/02/26 01:06:54;;;;;;;24.88;11.43;;;28.50;74.80;;;;;;5066591;28;20028;-56
2023/02/26 01:09:24;;;;;;;25.08;10.75;;;28.50;74.80;;;;;;5067145;28;20036;-53
2023/02/26 01:11:52;;;;;;;29.08;12.00;;;28.50;74.50;;;;;;5085241;28;20050;-56
2023/02/26 01:14:20;;;;;;;27.42;12.18;;;28.50;74.60;;;;;;5086391;28;20144;-54
2023/02/26 01:17:02;;;;;;;22.77;12.13;;;28.50;74.60;;;;;;5085901;28;20012;-56
2023/02/26 01:19:34;;;;;;;31.55;12.15;;;28.50;74.40;;;;;;5085899;28;20343;-56
2023/02/26 01:22:24;;;;;;;27.00;11.70;;;28.40;74.10;;;;;;5084913;28;20328;-54
2023/02/26 01:25:00;;;;;;;22.42;11.10;;;28.40;74.30;;;;;;5066169;28;20037;-55
2023/02/26 01:27:27;;;;;;;24.13;12.55;;;28.40;74.00;;;;;;5065696;28;20119;-57
2023/02/26 01:29:54;;;;;;;52.63;13.52;;;28.40;74.30;;;;;;5068352;28;20079;-60
2023/02/26 01:32:37;;;;;;;36.50;12.95;;;28.40;74.10;;;;;;5074489;28;20017;-54
2023/02/26 01:35:30;;;;;;;36.08;12.70;;;28.40;74.20;;;;;;5075999;28;20028;-51
2023/02/26 01:38:05;;;;;;;77.60;12.38;;;28.40;73.90;;;;;;5074057;28;20040;-50
2023/02/26 01:40:45;;;;;;;44.60;11.40;;;28.20;73.00;;;;;;5066321;28;20035;-54
2023/02/26 01:43:28;;;;;;;46.20;11.65;;;28.20;73.40;;;;;;5075378;28;20040;-54
2023/02/26 01:45:58;;;;;;;31.85;10.50;;;28.20;74.30;;;;;;5085579;28;20030;-57
2023/02/26 01:48:38;;;;;;;44.33;11.65;;;28.30;73.90;;;;;;5085533;28;20043;-59
2023/02/26 01:51:05;;;;;;;26.48;10.07;;;28.30;73.80;;;;;;5085435;28;20032;-58
2023/02/26 01:53:31;;;;;;;29.98;9.68;;;28.30;73.90;;;;;;5085033;28;20020;-59
2023/02/26 01:56:04;;;;;;;30.65;10.00;;;28.30;73.70;;;;;;5079230;28;20059;-54
2023/02/26 01:58:34;;;;;;;19.23;9.82;;;28.20;73.50;;;;;;5084370;28;20031;-54
2023/02/26 02:01:02;;;;;;;22.85;9.93;;;28.30;73.60;;;;;;5085211;28;20059;-55
2023/02/26 02:03:31;;;;;;;21.60;10.43;;;28.20;73.50;;;;;;5085351;28;20338;-52
2023/02/26 02:06:07;;;;;;;24.02;10.75;;;28.20;73.60;;;;;;5085066;28;20319;-54
2023/02/26 02:08:35;;;;;;;31.92;11.57;;;28.20;73.40;;;;;;5084752;28;20134;-55
2023/02/26 02:11:06;;;;;;;20.52;10.30;;;28.20;73.30;;;;;;5085051;28;20033;-58
2023/02/26 02:13:59;;;;;;;20.13;10.30;;;28.20;73.30;;;;;;5085207;28;20017;-58
2023/02/26 02:16:55;;;;;;;20.23;9.57;;;28.20;73.10;;;;;;5069545;28;20048;-58
2023/02/26 02:19:39;;;;;;;15.48;10.15;;;28.20;73.40;;;;;;5065065;28;20052;-60
2023/02/26 02:22:13;;;;;;;23.95;9.57;;;28.20;73.30;;;;;;5064690;28;20074;-59
2023/02/26 02:25:09;;;;;;;14.85;9.77;;;28.20;73.30;;;;;;5064937;28;20115;-56
2023/02/26 02:28:04;;;;;;;12.35;9.05;;;28.20;73.40;;;;;;5075381;28;20041;-57
2023/02/26 02:31:10;;;;;;;18.90;9.25;;;28.10;73.40;;;;;;5057953;28;20039;-63
2023/02/26 02:33:48;;;;;;;13.90;8.32;;;28.10;73.40;;;;;;5041972;28;20045;-57
2023/02/26 02:36:27;;;;;;;13.65;8.65;;;28.10;73.40;;;;;;5064587;28;20028;-56
2023/02/26 02:39:05;;;;;;;15.13;8.82;;;28.10;73.30;;;;;;5064362;28;20312;-59
2023/02/26 02:41:48;;;;;;;14.43;9.25;;;28.10;73.40;;;;;;5079351;28;20035;-58
2023/02/26 02:44:19;;;;;;;18.60;8.82;;;28.10;73.40;;;;;;5084669;28;20055;-55
2023/02/26 02:46:50;;;;;;;15.50;8.68;;;28.10;73.40;;;;;;5084316;28;20287;-53
2023/02/26 02:49:49;;;;;;;12.77;8.77;;;28.10;73.50;;;;;;5084224;28;20059;-59
2023/02/26 02:52:25;;;;;;;14.35;8.98;;;28.00;73.40;;;;;;5084113;28;20047;-60
2023/02/26 02:54:57;;;;;;;17.65;8.43;;;28.10;73.50;;;;;;5084668;28;20028;-55
2023/02/26 02:57:33;;;;;;;14.85;8.65;;;28.00;73.40;;;;;;5084293;28;20028;-55
2023/02/26 03:00:09;;;;;;;14.98;7.65;;;28.00;73.40;;;;;;5083527;28;20066;-56
2023/02/26 03:02:57;;;;;;;16.13;8.35;;;28.00;73.40;;;;;;5083001;28;20224;-51
2023/02/26 03:05:24;;;;;;;15.15;8.00;;;28.00;73.40;;;;;;5084042;28;20058;-57
2023/02/26 03:07:58;;;;;;;12.63;7.88;;;28.00;73.50;;;;;;5084050;28;20028;-55
2023/02/26 03:10:26;;;;;;;11.32;8.32;;;28.00;73.60;;;;;;5083880;28;20313;-60
2023/02/26 03:12:52;;;;;;;14.23;7.70;;;27.90;73.50;;;;;;5073230;28;20029;-58
2023/02/26 03:15:32;;;;;;;10.55;8.02;;;28.00;73.50;;;;;;5069548;28;20025;-56
2023/02/26 03:18:27;;;;;;;13.40;8.05;;;27.90;73.40;;;;;;5063924;28;20402;-55
2023/02/26 03:21:28;;;;;;;11.20;8.32;;;27.90;73.40;;;;;;5063812;28;20322;-59
2023/02/26 03:24:11;;;;;;;20.55;8.60;;;27.80;73.40;;;;;;5064193;28;20060;-55
2023/02/26 03:26:57;;;;;;;14.93;8.35;;;27.90;73.60;;;;;;5063843;28;20107;-57
2023/02/26 03:29:44;;;;;;;13.82;7.80;;;27.90;73.50;;;;;;5062625;28;20217;-64
2023/02/26 03:32:47;;;;;;;14.48;7.63;;;27.90;73.50;;;;;;5063918;28;20073;-55
2023/02/26 03:35:34;;;;;;;12.85;8.20;;;27.90;73.50;;;;;;5054276;28;20037;-56
2023/02/26 03:38:05;;;;;;;10.65;8.00;;;27.80;73.50;;;;;;5063652;28;20029;-54
2023/02/26 03:41:09;;;;;;;11.18;8.82;;;27.80;73.60;;;;;;5066920;28;20035;-56
2023/02/26 03:43:51;;;;;;;14.38;10.23;;;27.80;73.60;;;;;;5052917;28;20045;-57
2023/02/26 03:46:43;;;;;;;18.38;9.68;;;27.80;73.70;;;;;;5083641;28;20036;-55
2023/02/26 03:49:14;;;;;;;19.45;8.80;;;27.80;73.90;;;;;;5083626;28;20048;-62
2023/02/26 03:51:43;;;;;;;20.67;8.90;;;27.80;74.00;;;;;;5083478;28;20024;-57
2023/02/26 03:54:15;;;;;;;19.08;8.65;;;27.80;74.10;;;;;;5083957;28;20090;-53
2023/02/26 03:56:47;;;;;;;13.77;8.48;;;27.80;74.20;;;;;;5083554;28;20080;-54
2023/02/26 03:59:15;;;;;;;15.45;7.70;;;27.80;74.20;;;;;;5085351;28;20032;-56
2023/02/26 04:01:47;;;;;;;15.82;8.18;;;27.80;74.40;;;;;;5087551;28;20092;-57
2023/02/26 04:04:41;;;;;;;12.77;7.90;;;27.80;74.50;;;;;;5087806;28;20096;-57
2023/02/26 04:07:13;;;;;;;11.48;7.10;;;27.70;74.40;;;;;;5087481;28;20033;-57
2023/02/26 04:09:45;;;;;;;12.52;7.22;;;27.70;74.50;;;;;;5087812;28;20040;-56
2023/02/26 04:12:12;;;;;;;10.45;6.60;;;27.70;74.40;;;;;;5087560;28;20020;-55
2023/02/26 04:14:39;;;;;;;9.73;6.88;;;27.70;74.30;;;;;;5087106;28;20310;-56
2023/02/26 04:17:06;;;;;;;9.10;6.75;;;27.70;74.30;;;;;;5087396;28;20024;-56
2023/02/26 04:19:32;;;;;;;11.95;6.88;;;27.70;74.40;;;;;;5087480;28;20044;-54
2023/02/26 04:21:59;;;;;;;11.75;6.68;;;27.70;74.40;;;;;;5087091;28;20223;-57
2023/02/26 04:24:25;;;;;;;9.63;7.10;;;27.70;74.40;;;;;;5079348;28;20025;-57
2023/02/26 04:26:52;;;;;;;10.40;7.38;;;27.70;74.50;;;;;;5078086;28;20024;-54
2023/02/26 04:29:18;;;;;;;15.18;7.60;;;27.60;74.50;;;;;;5077334;28;20032;-57
2023/02/26 04:31:45;;;;;;;9.02;7.50;;;27.60;74.70;;;;;;5078572;28;20029;-55
2023/02/26 04:34:12;;;;;;;10.98;7.28;;;27.60;74.70;;;;;;5074057;28;20038;-54
2023/02/26 04:36:38;;;;;;;9.93;7.65;;;27.60;74.80;;;;;;5077211;28;20048;-55
2023/02/26 04:39:05;;;;;;;9.02;7.18;;;27.60;74.80;;;;;;5075909;28;20043;-54
2023/02/26 04:41:31;;;;;;;10.32;7.57;;;27.60;74.80;;;;;;5066806;28;20021;-54
2023/02/26 04:43:58;;;;;;;9.20;7.47;;;27.60;75.50;;;;;;5066692;28;20143;-55
2023/02/26 04:46:24;;;;;;;10.98;7.25;;;27.60;75.10;;;;;;5075166;28;20020;-53
2023/02/26 04:48:51;;;;;;;10.85;7.18;;;27.50;75.10;;;;;;5077784;28;20292;-54
2023/02/26 04:51:17;;;;;;;14.40;7.82;;;27.50;75.20;;;;;;5075200;28;20040;-55
2023/02/26 04:53:44;;;;;;;17.90;8.27;;;27.50;75.30;;;;;;5076603;28;20020;-55
2023/02/26 04:56:11;;;;;;;9.57;7.70;;;27.50;75.40;;;;;;5075615;28;20099;-56
2023/02/26 04:58:37;;;;;;;10.13;7.78;;;27.50;75.50;;;;;;5078532;28;20037;-57
2023/02/26 05:01:05;;;;;;;12.38;7.72;;;27.50;75.60;;;;;;5066358;28;20013;-54
2023/02/26 05:03:32;;;;;;;16.20;8.07;;;27.40;75.60;;;;;;5076840;28;20044;-54
2023/02/26 05:05:58;;;;;;;10.80;8.38;;;27.40;75.60;;;;;;5072530;28;20247;-60
2023/02/26 05:08:25;;;;;;;12.38;8.18;;;27.40;75.60;;;;;;5073440;28;20368;-58
2023/02/26 05:10:52;;;;;;;18.50;8.63;;;27.40;75.60;;;;;;5065122;28;20032;-59
2023/02/26 05:13:20;;;;;;;13.35;8.70;;;27.40;75.70;;;;;;5066318;28;20025;-56
2023/02/26 05:15:47;;;;;;;15.77;8.10;;;27.40;75.80;;;;;;5066038;28;20264;-58
2023/02/26 05:18:15;;;;;;;13.68;8.40;;;27.30;75.80;;;;;;5075671;28;20024;-57
2023/02/26 05:20:42;;;;;;;17.88;8.00;;;27.30;76.00;;;;;;5067608;28;20052;-55
2023/02/26 05:23:08;;;;;;;15.00;8.70;;;27.40;76.10;;;;;;5066005;28;20323;-55
2023/02/26 05:25:35;;;;;;;15.43;8.90;;;27.30;76.20;;;;;;5066013;28;20032;-57
2023/02/26 05:28:01;;;;;;;14.13;8.50;;;27.30;76.30;;;;;;5066145;28;20048;-57
2023/02/26 05:30:28;;;;;;;15.48;8.60;;;27.30;76.40;;;;;;5065719;28;20085;-56
2023/02/26 05:32:54;;;;;;;15.15;9.35;;;27.30;76.60;;;;;;5066096;28;20028;-58
2023/02/26 05:35:21;;;;;;;18.63;9.15;;;27.20;76.60;;;;;;5065971;28;20257;-53
2023/02/26 05:37:48;;;;;;;23.42;8.95;;;27.30;76.80;;;;;;5071900;28;20012;-58
2023/02/26 05:40:14;;;;;;;18.90;9.07;;;27.30;76.80;;;;;;5072633;28;20029;-54
2023/02/26 05:42:41;;;;;;;23.20;10.40;;;27.20;77.00;;;;;;5076380;28;20029;-59
2023/02/26 05:45:08;;;;;;;24.42;10.00;;;27.20;77.20;;;;;;5074097;28;20087;-54
2023/02/26 05:47:35;;;;;;;20.83;9.73;;;27.20;77.20;;;;;;5076310;28;20024;-56
2023/02/26 05:50:02;;;;;;;21.08;9.52;;;27.20;77.20;;;;;;5076863;28;20364;-56
2023/02/26 05:52:29;;;;;;;19.77;8.90;;;27.20;77.20;;;;;;5071903;28;20021;-60
2023/02/26 05:54:55;;;;;;;20.52;8.88;;;27.20;77.10;;;;;;5077955;28;20042;-56
2023/02/26 05:57:23;;;;;;;17.55;8.98;;;27.20;77.20;;;;;;5076051;28;20025;-60
2023/02/26 05:59:50;;;;;;;19.95;8.40;;;27.20;77.30;;;;;;5071006;28;20084;-56
2023/02/26 06:02:16;;;;;;;15.23;8.90;;;27.20;77.20;;;;;;5065383;28;20089;-57
2023/02/26 06:04:43;;;;;;;16.52;8.95;;;27.20;77.40;;;;;;5065734;28;20415;-56
2023/02/26 06:07:10;;;;;;;15.60;9.15;;;27.20;77.60;;;;;;5073320;28;20016;-57
2023/02/26 06:09:36;;;;;;;15.68;8.95;;;27.20;77.60;;;;;;5072697;28;20035;-56
2023/02/26 06:12:03;;;;;;;17.20;9.27;;;27.20;77.60;;;;;;5074058;28;20032;-56
2023/02/26 06:14:30;;;;;;;13.50;7.93;;;27.20;77.70;;;;;;5069958;28;20032;-59
2023/02/26 06:16:56;;;;;;;15.93;8.90;;;27.20;77.60;;;;;;5074748;28;20025;-55
2023/02/26 06:19:23;;;;;;;13.52;8.15;;;27.20;77.60;;;;;;5064811;28;20033;-60
2023/02/26 06:21:49;;;;;;;14.70;9.13;;;27.20;77.70;;;;;;5066765;28;20029;-57
2023/02/26 06:24:16;;;;;;;17.50;9.20;;;27.20;77.80;;;;;;5074589;28;20029;-57
2023/02/26 06:26:42;;;;;;;16.48;8.80;;;27.10;77.70;;;;;;5075550;28;20048;-56
2023/02/26 06:29:09;;;;;;;11.90;8.73;;;27.20;77.70;;;;;;5067554;28;20024;-55
2023/02/26 06:31:36;;;;;;;13.88;8.85;;;27.20;77.30;;;;;;5073654;28;20038;-58
2023/02/26 06:34:02;;;;;;;14.05;8.93;;;27.20;76.50;;;;;;5075987;28;20044;-55
2023/02/26 06:36:29;;;;;;;12.90;8.93;;;27.10;76.00;;;;;;5071018;28;20024;-55
2023/02/26 06:38:56;;;;;;;13.15;8.85;;;27.10;75.80;;;;;;5071389;28;20032;-55
2023/02/26 06:41:22;;;;;;;10.68;8.88;;;27.20;75.70;;;;;;5073790;28;20037;-56
2023/02/26 06:43:49;;;;;;;12.15;8.88;;;27.20;75.70;;;;;;5076270;28;20033;-57
2023/02/26 06:46:15;;;;;;;10.90;8.90;;;27.20;75.60;;;;;;5067642;28;20043;-56
2023/02/26 06:48:42;;;;;;;11.20;9.07;;;27.20;75.80;;;;;;5072764;28;20047;-54
2023/02/26 06:51:08;;;;;;;12.20;9.18;;;27.20;75.80;;;;;;5072077;28;20017;-56
2023/02/26 06:53:35;;;;;;;11.05;8.50;;;27.20;76.10;;;;;;5072518;28;20033;-50
2023/02/26 06:56:02;;;;;;;10.73;8.45;;;27.20;76.20;;;;;;5075054;28;20034;-55
2023/02/26 06:58:29;;;;;;;8.93;8.02;;;27.20;76.50;;;;;;5067252;28;20047;-56
2023/02/26 07:00:56;;;;;;;11.13;8.30;;;27.20;76.60;;;;;;5073173;28;20320;-57
2023/02/26 07:03:23;;;;;;;9.73;8.23;;;27.10;76.60;;;;;;5075312;28;20036;-57
2023/02/26 07:05:49;;;;;;;9.18;8.32;;;27.10;76.70;;;;;;5075765;28;20095;-60
2023/02/26 07:08:16;;;;;;;9.55;8.50;;;27.20;76.70;;;;;;5075482;28;20032;-56
2023/02/26 07:10:46;;;;;;;10.65;8.50;;;27.10;76.70;;;;;;5073386;28;20029;-56
2023/02/26 07:13:12;;;;;;;9.45;8.45;;;27.10;77.00;;;;;;5071497;28;20077;-57
2023/02/26 07:15:39;;;;;;;10.63;8.32;;;27.10;77.20;;;;;;5073486;28;20024;-57
2023/02/26 07:18:06;;;;;;;11.55;8.88;;;27.00;77.30;;;;;;5073958;28;20040;-55
2023/02/26 07:20:33;;;;;;;11.30;8.90;;;27.00;77.40;;;;;;5077304;28;20044;-55
2023/02/26 07:23:00;;;;;;;13.05;9.00;;;27.00;77.50;;;;;;5071943;28;21251;-57
2023/02/26 07:25:27;;;;;;;10.75;8.70;;;27.10;77.50;;;;;;5075372;28;20325;-57
2023/02/26 07:27:53;;;;;;;13.85;9.25;;;27.00;77.50;;;;;;5071604;28;20024;-58
2023/02/26 07:30:20;;;;;;;11.50;9.23;;;27.00;77.60;;;;;;5072871;28;20025;-56
2023/02/26 07:32:46;;;;;;;9.82;8.82;;;27.00;77.60;;;;;;5076209;28;20071;-60
2023/02/26 07:35:13;;;;;;;11.38;9.02;;;27.00;77.60;;;;;;5073789;28;20062;-58
2023/02/26 07:37:40;;;;;;;10.93;8.73;;;27.00;77.60;;;;;;5074316;28;20096;-58
2023/02/26 07:40:07;;;;;;;10.10;9.07;;;27.10;77.70;;;;;;5076082;28;20041;-59
2023/02/26 07:42:33;;;;;;;12.73;9.13;;;27.00;77.80;;;;;;5074601;28;20074;-56
2023/02/26 07:45:01;;;;;;;10.10;9.10;;;27.00;77.90;;;;;;5069323;28;20047;-55
2023/02/26 07:47:29;;;;;;;10.75;9.07;;;27.00;78.00;;;;;;5075350;28;20028;-56
2023/02/26 07:49:56;;;;;;;10.90;9.27;;;27.00;78.20;;;;;;5075439;28;20134;-59
2023/02/26 07:52:23;;;;;;;10.48;9.40;;;27.00;78.30;;;;;;5072770;28;20029;-57
2023/02/26 07:54:49;;;;;;;10.68;9.10;;;26.90;78.40;;;;;;5075168;28;20033;-58
2023/02/26 07:57:16;;;;;;;13.25;9.43;;;26.90;78.20;;;;;;5070215;28;20331;-58
2023/02/26 07:59:43;;;;;;;12.95;9.35;;;26.90;78.20;;;;;;5075611;28;20020;-59
2023/02/26 08:02:11;;;;;;;12.48;9.23;;;26.90;78.30;;;;;;5074234;28;20028;-58
2023/02/26 08:04:38;;;;;;;17.08;9.85;;;26.90;78.30;;;;;;5070298;28;20021;-56
2023/02/26 08:07:06;;;;;;;10.32;9.13;;;26.90;78.40;;;;;;5074634;28;20036;-58
2023/02/26 08:09:32;;;;;;;11.23;9.55;;;26.90;78.50;;;;;;5076020;28;20217;-58
2023/02/26 08:11:59;;;;;;;13.65;10.52;;;26.90;78.40;;;;;;5076798;28;20020;-56
2023/02/26 08:14:26;;;;;;;15.75;10.52;;;26.90;78.30;;;;;;5075292;28;20052;-56
2023/02/26 08:16:52;;;;;;;13.75;10.38;;;26.90;78.20;;;;;;5072209;28;20064;-55
2023/02/26 08:19:19;;;;;;;22.58;10.95;;;26.90;78.20;;;;;;5075521;28;20025;-56
2023/02/26 08:21:45;;;;;;;20.40;10.25;;;26.90;78.70;;;;;;5074046;28;20247;-56
2023/02/26 08:24:12;;;;;;;18.52;10.23;;;26.90;78.10;;;;;;5074007;28;20094;-57
2023/02/26 08:26:39;;;;;;;16.70;10.35;;;26.90;77.90;;;;;;5067707;28;20226;-56
2023/02/26 08:29:06;;;;;;;15.05;9.55;;;26.90;77.80;;;;;;5074513;28;20028;-55
2023/02/26 08:31:34;;;;;;;14.27;9.68;;;26.90;77.80;;;;;;5075560;28;20359;-57
2023/02/26 08:34:01;;;;;;;11.88;9.00;;;26.90;77.80;;;;;;5074427;28;20372;-54
2023/02/26 08:36:27;;;;;;;18.20;9.85;;;26.90;77.90;;;;;;5074141;28;20025;-54
2023/02/26 08:38:54;;;;;;;12.07;9.43;;;26.90;78.00;;;;;;5075061;28;20032;-53
2023/02/26 08:41:21;;;;;;;13.07;9.82;;;26.90;78.60;;;;;;5073520;28;20224;-55
2023/02/26 08:43:48;;;;;;;10.23;8.63;;;26.90;78.10;;;;;;5068748;28;20025;-59
2023/02/26 08:46:14;;;;;;;11.45;9.32;;;26.90;78.10;;;;;;5075174;28;20073;-55
2023/02/26 08:48:41;;;;;;;13.43;9.15;;;26.90;78.20;;;;;;5076629;28;20032;-54
2023/02/26 08:51:08;;;;;;;11.13;8.95;;;26.90;78.40;;;;;;5074920;28;20036;-57
2023/02/26 08:53:34;;;;;;;10.07;8.93;;;26.80;78.40;;;;;;5078449;28;20033;-59
2023/02/26 08:56:01;;;;;;;12.95;9.00;;;26.90;78.60;;;;;;5075337;28;20044;-57
2023/02/26 08:58:27;;;;;;;11.18;8.52;;;26.90;78.60;;;;;;5077474;28;20029;-56
2023/02/26 09:00:54;;;;;;;9.45;8.25;;;26.90;78.70;;;;;;5077579;28;20091;-55
2023/02/26 09:03:21;;;;;;;11.13;8.52;;;26.90;78.60;;;;;;5076262;28;20033;-59
2023/02/26 09:05:47;;;;;;;8.85;7.95;;;26.90;78.70;;;;;;5077230;28;20032;-55
2023/02/26 09:08:14;;;;;;;9.40;8.38;;;26.90;78.80;;;;;;5071925;28;20033;-58
2023/02/26 09:10:41;;;;;;;9.07;8.18;;;26.90;79.20;;;;;;5076826;28;20311;-61
2023/02/26 09:13:08;;;;;;;14.82;8.30;;;26.90;79.40;;;;;;5077794;28;20025;-56
2023/02/26 09:15:35;;;;;;;10.63;8.68;;;26.80;79.70;;;;;;5075611;28;20027;-54
2023/02/26 09:18:02;;;;;;;10.73;8.27;;;26.80;79.80;;;;;;5076865;28;20385;-54
2023/02/26 09:20:28;;;;;;;11.27;7.93;;;26.90;80.40;;;;;;5076054;28;20051;-57
2023/02/26 09:22:55;;;;;;;9.07;8.18;;;26.80;80.40;;;;;;5074086;28;20099;-57
2023/02/26 09:25:22;;;;;;;10.30;8.38;;;26.80;80.60;;;;;;5075788;28;20062;-58
2023/02/26 09:27:49;;;;;;;10.18;8.20;;;26.90;81.00;;;;;;5076451;28;20041;-56
2023/02/26 09:30:16;;;;;;;9.00;8.10;;;26.80;81.10;;;;;;5070007;28;20059;-55
2023/02/26 09:32:43;;;;;;;21.13;9.70;;;26.80;81.30;;;;;;5076815;28;20009;-57
2023/02/26 09:35:10;;;;;;;19.10;9.13;;;26.80;82.10;;;;;;5076369;28;20017;-57
2023/02/26 09:37:37;;;;;;;20.55;9.48;;;26.80;82.20;;;;;;5072834;28;20039;-56
2023/02/26 09:40:04;;;;;;;14.52;8.80;;;26.70;82.90;;;;;;5074185;28;20044;-56
2023/02/26 09:42:45;;;;;;;13.85;8.95;;;26.70;83.10;;;;;;5076577;28;20031;-57
2023/02/26 09:45:41;;;;;;;12.20;8.43;;;26.70;83.30;;;;;;5076518;28;20037;-56
2023/02/26 09:48:13;;;;;;;11.68;8.55;;;26.70;83.50;;;;;;5077172;28;20230;-60
2023/02/26 09:50:47;;;;;;;13.07;8.95;;;26.60;83.70;;;;;;5081769;28;20224;-57
2023/02/26 09:53:16;;;;;;;11.60;9.10;;;26.60;83.70;;;;;;5083360;28;20066;-57
2023/02/26 09:55:47;;;;;;;18.63;9.23;;;26.60;83.90;;;;;;5079708;28;20024;-59
2023/02/26 09:58:28;;;;;;;16.65;8.65;;;26.60;83.80;;;;;;5083391;28;20060;-57
2023/02/26 10:01:19;;;;;;;15.32;8.95;;;26.60;83.70;;;;;;5081921;28;20055;-55
2023/02/26 10:04:07;;;;;;;10.77;8.77;;;26.60;83.70;;;;;;5077788;28;20350;-58
2023/02/26 10:06:51;;;;;;;12.40;8.30;;;26.60;83.60;;;;;;5082864;28;20343;-59
2023/02/26 10:09:30;;;;;;;9.65;8.45;;;26.60;83.50;;;;;;5083782;28;20099;-54
2023/02/26 10:12:17;;;;;;;9.85;8.70;;;26.60;83.50;;;;;;5083446;28;20036;-61
2023/02/26 10:15:06;;;;;;;10.45;8.38;;;26.60;83.50;;;;;;5085440;28;20331;-55
2023/02/26 10:17:53;;;;;;;12.02;9.10;;;26.60;83.40;;;;;;5084853;28;20086;-57
2023/02/26 10:20:26;;;;;;;12.23;7.93;;;26.60;83.30;;;;;;5085082;28;20044;-57
2023/02/26 10:23:11;;;;;;;11.70;7.97;;;26.60;83.20;;;;;;5084074;28;20318;-56
2023/02/26 10:25:45;;;;;;;9.50;8.35;;;26.60;83.20;;;;;;5084987;28;20341;-55
2023/02/26 10:28:12;;;;;;;10.80;8.10;;;26.60;83.00;;;;;;5084861;28;20071;-57
2023/02/26 10:30:55;;;;;;;12.27;8.07;;;26.60;82.80;;;;;;5084677;28;20038;-57
2023/02/26 10:33:45;;;;;;;8.88;7.95;;;26.60;82.70;;;;;;5077038;28;20032;-58
2023/02/26 10:36:48;;;;;;;13.55;8.30;;;26.60;82.70;;;;;;5082055;28;20024;-58
2023/02/26 10:39:40;;;;;;;13.63;8.30;;;26.60;82.60;;;;;;5065180;28;20025;-60
2023/02/26 10:42:15;;;;;;;8.90;7.65;;;26.50;82.60;;;;;;5074917;28;20016;-56
2023/02/26 10:45:06;;;;;;;9.55;8.40;;;26.60;82.50;;;;;;5082131;28;20328;-57
2023/02/26 10:47:38;;;;;;;11.18;8.30;;;26.60;82.40;;;;;;5081762;28;20028;-62
2023/02/26 10:50:13;;;;;;;9.10;8.15;;;26.50;82.40;;;;;;5074348;28;20032;-57
2023/02/26 10:52:43;;;;;;;12.25;8.05;;;26.60;82.40;;;;;;5084186;28;20025;-58
2023/02/26 10:55:38;;;;;;;9.85;8.25;;;26.60;82.40;;;;;;5082497;28;20182;-56
2023/02/26 10:58:15;;;;;;;10.35;8.15;;;26.60;82.20;;;;;;5080869;28;20031;-56
2023/02/26 11:00:47;;;;;;;8.60;7.80;;;26.60;82.10;;;;;;5084527;28;20032;-58
2023/02/26 11:03:41;;;;;;;10.25;7.78;;;26.60;82.10;;;;;;5084110;28;20074;-58
2023/02/26 11:06:09;;;;;;;13.38;9.20;;;26.60;82.10;;;;;;5082442;28;20043;-56
2023/02/26 11:08:45;;;;;;;12.20;9.50;;;26.60;82.20;;;;;;5079199;28;20100;-55
2023/02/26 11:11:40;;;;;;;14.07;9.23;;;26.60;82.20;;;;;;5078013;28;20040;-57
2023/02/26 11:14:08;;;;;;;12.68;9.85;;;26.60;82.40;;;;;;5075125;28;20024;-60
2023/02/26 11:16:40;;;;;;;13.40;10.50;;;26.60;82.40;;;;;;5079451;28;20308;-56
2023/02/26 11:19:08;;;;;;;14.05;10.98;;;26.60;82.50;;;;;;5082405;28;20099;-58
2023/02/26 11:21:38;;;;;;;22.92;11.15;;;26.60;82.40;;;;;;5083386;28;20049;-57
2023/02/26 11:24:11;;;;;;;24.33;11.48;;;26.60;82.80;;;;;;5084220;28;20292;-58
2023/02/26 11:26:42;;;;;;;17.00;10.85;;;26.60;82.60;;;;;;5083852;28;20051;-59
2023/02/26 11:29:24;;;;;;;25.70;12.18;;;26.60;82.70;;;;;;5084232;28;20028;-57
2023/02/26 11:31:51;;;;;;;18.23;11.05;;;26.60;82.70;;;;;;5083931;28;20063;-58
2023/02/26 11:34:23;;;;;;;19.90;11.27;;;26.60;82.90;;;;;;5082008;28;20146;-58
2023/02/26 11:36:50;;;;;;;25.10;12.05;;;26.60;82.70;;;;;;5081312;28;20036;-58
2023/02/26 11:39:21;;;;;;;23.35;12.57;;;26.60;82.80;;;;;;5084311;28;20024;-54
2023/02/26 11:41:49;;;;;;;20.50;11.90;;;26.40;83.30;;;;;;5084098;28;20107;-54
2023/02/26 11:44:21;;;;;;;18.77;11.88;;;26.50;83.50;;;;;;5084169;28;20029;-53
2023/02/26 11:46:56;;;;;;;18.55;10.82;;;26.50;83.70;;;;;;5083672;28;20275;-53
2023/02/26 11:49:26;;;;;;;17.85;11.30;;;26.50;84.00;;;;;;5082822;28;20174;-57
2023/02/26 11:52:15;;;;;;;19.45;11.52;;;26.50;84.10;;;;;;5082032;28;20091;-57
2023/02/26 11:54:45;;;;;;;16.27;11.00;;;26.50;84.20;;;;;;5083106;28;20024;-57
2023/02/26 11:57:25;;;;;;;21.95;11.40;;;26.50;84.30;;;;;;5082760;28;20052;-52
2023/02/26 11:59:54;;;;;;;18.60;11.32;;;26.50;84.20;;;;;;5083348;28;20253;-53
2023/02/26 12:02:24;;;;;;;19.88;11.90;;;26.50;84.20;;;;;;5083565;28;20039;-53
2023/02/26 12:04:59;;;;;;;13.70;10.85;;;26.50;84.20;;;;;;5083443;28;20021;-57
2023/02/26 12:07:26;;;;;;;18.13;12.23;;;26.50;84.20;;;;;;5083363;28;20025;-52
2023/02/26 12:09:53;;;;;;;18.00;12.20;;;26.50;84.10;;;;;;5083846;28;20056;-52
2023/02/26 12:12:35;;;;;;;22.80;11.98;;;26.50;84.00;;;;;;5083573;28;20086;-53
2023/02/26 12:15:14;;;;;;;18.42;11.65;;;26.50;84.00;;;;;;5083483;28;20024;-53
2023/02/26 12:18:24;;;;;;;20.23;12.13;;;26.50;84.10;;;;;;5083289;28;20086;-51
2023/02/26 12:20:51;;;;;;;24.40;12.55;;;26.50;84.30;;;;;;5048296;28;20104;-56
2023/02/26 12:23:24;;;;;;;26.77;13.27;;;26.50;84.30;;;;;;5087264;28;20271;-59
2023/02/26 12:26:12;;;;;;;24.60;13.63;;;26.40;84.10;;;;;;5087148;28;20056;-53
2023/02/26 12:29:17;;;;;;;21.92;13.95;;;26.40;84.10;;;;;;5087405;28;20201;-58
2023/02/26 12:32:02;;;;;;;21.95;14.07;;;26.40;84.10;;;;;;5087143;28;20372;-55
2023/02/26 12:34:28;;;;;;;16.92;13.05;;;26.40;84.10;;;;;;5087586;28;20204;-55
2023/02/26 12:37:19;;;;;;;23.63;13.27;;;26.40;84.30;;;;;;5086931;28;20009;-58
2023/02/26 12:39:49;;;;;;;19.23;13.25;;;26.50;84.30;;;;;;5087365;28;20036;-51
2023/02/26 12:42:21;;;;;;;18.67;13.25;;;26.40;84.30;;;;;;5087035;28;20013;-57
2023/02/26 12:44:57;;;;;;;17.02;14.07;;;26.50;84.30;;;;;;5087272;28;20063;-56
2023/02/26 12:47:34;;;;;;;25.67;14.60;;;26.40;84.20;;;;;;5086716;28;20114;-53
2023/02/26 12:50:25;;;;;;;30.75;14.73;;;26.50;84.10;;;;;;5086654;28;20335;-58
2023/02/26 12:53:13;;;;;;;29.02;14.93;;;26.50;84.00;;;;;;5086667;28;20020;-52
2023/02/26 12:55:45;;;;;;;34.25;15.50;;;26.40;83.90;;;;;;5086378;28;20031;-57
2023/02/26 12:58:30;;;;;;;43.70;16.88;;;26.40;83.70;;;;;;5086801;28;20359;-54
2023/02/26 13:01:10;;;;;;;43.30;17.00;;;26.50;83.70;;;;;;5086348;28;20040;-54